sensor_id;sensor_type;location;lat;lon;timestamp;P1;durP1;ratioP1;P2;durP2;ratioP2
11135;SDS011;5622;50.840;4.948;2023-06-19T00:02:07;5.57;;;4.07;;
11135;SDS011;5622;50.840;4.948;2023-06-19T00:04:35;5.53;;;4.47;;
11135;SDS011;5622;50.840;4.948;2023-06-19T00:07:03;5.10;;;4.37;;
11135;SDS011;5622;50.840;4.948;2023-06-19T00:09:31;6.00;;;4.10;;
11135;SDS011;5622;50.840;4.948;2023-06-19T00:11:59;4.90;;;3.97;;
11135;SDS011;5622;50.840;4.948;2023-06-19T00:14:26;5.80;;;4.30;;
11135;SDS011;5622;50.840;4.948;2023-06-19T00:16:53;5.07;;;3.93;;
11135;SDS011;5622;50.840;4.948;2023-06-19T00:19:21;6.30;;;4.63;;
11135;SDS011;5622;50.840;4.948;2023-06-19T00:21:50;4.87;;;4.30;;
11135;SDS011;5622;50.840;4.948;2023-06-19T00:24:22;8.00;;;4.17;;
11135;SDS011;5622;50.840;4.948;2023-06-19T00:26:49;4.93;;;3.97;;
11135;SDS011;5622;50.840;4.948;2023-06-19T00:29:16;4.90;;;4.23;;
11135;SDS011;5622;50.840;4.948;2023-06-19T00:31:43;5.07;;;3.87;;
11135;SDS011;5622;50.840;4.948;2023-06-19T00:34:10;6.10;;;4.80;;
11135;SDS011;5622;50.840;4.948;2023-06-19T00:36:37;4.77;;;3.87;;
11135;SDS011;5622;50.840;4.948;2023-06-19T00:39:07;6.50;;;4.00;;
11135;SDS011;5622;50.840;4.948;2023-06-19T00:41:34;5.47;;;4.10;;
11135;SDS011;5622;50.840;4.948;2023-06-19T00:44:02;5.47;;;4.50;;
11135;SDS011;5622;50.840;4.948;2023-06-19T00:46:29;4.43;;;4.00;;
11135;SDS011;5622;50.840;4.948;2023-06-19T00:48:57;4.67;;;4.00;;
11135;SDS011;5622;50.840;4.948;2023-06-19T00:51:24;5.17;;;4.23;;
11135;SDS011;5622;50.840;4.948;2023-06-19T00:53:51;4.93;;;4.43;;
11135;SDS011;5622;50.840;4.948;2023-06-19T00:56:20;6.53;;;4.10;;
11135;SDS011;5622;50.840;4.948;2023-06-19T00:58:47;7.97;;;4.03;;
11135;SDS011;5622;50.840;4.948;2023-06-19T01:01:14;5.63;;;4.10;;
11135;SDS011;5622;50.840;4.948;2023-06-19T01:03:41;5.90;;;4.30;;
11135;SDS011;5622;50.840;4.948;2023-06-19T01:06:10;4.10;;;3.70;;
11135;SDS011;5622;50.840;4.948;2023-06-19T01:08:43;5.83;;;3.93;;
11135;SDS011;5622;50.840;4.948;2023-06-19T01:11:17;5.47;;;3.70;;
11135;SDS011;5622;50.840;4.948;2023-06-19T01:13:50;5.07;;;4.00;;
11135;SDS011;5622;50.840;4.948;2023-06-19T01:16:23;4.83;;;3.87;;
11135;SDS011;5622;50.840;4.948;2023-06-19T01:18:50;5.70;;;4.23;;
11135;SDS011;5622;50.840;4.948;2023-06-19T01:21:18;7.80;;;4.20;;
11135;SDS011;5622;50.840;4.948;2023-06-19T01:23:47;6.50;;;4.37;;
11135;SDS011;5622;50.840;4.948;2023-06-19T01:26:15;5.10;;;4.10;;
11135;SDS011;5622;50.840;4.948;2023-06-19T01:28:42;5.33;;;4.17;;
11135;SDS011;5622;50.840;4.948;2023-06-19T01:31:12;4.97;;;3.97;;
11135;SDS011;5622;50.840;4.948;2023-06-19T01:33:43;4.73;;;3.90;;
11135;SDS011;5622;50.840;4.948;2023-06-19T01:36:11;3.67;;;3.23;;
11135;SDS011;5622;50.840;4.948;2023-06-19T01:38:40;3.87;;;3.43;;
11135;SDS011;5622;50.840;4.948;2023-06-19T01:41:11;3.83;;;3.50;;
11135;SDS011;5622;50.840;4.948;2023-06-19T01:43:40;5.53;;;3.80;;
11135;SDS011;5622;50.840;4.948;2023-06-19T01:46:07;5.90;;;3.70;;
11135;SDS011;5622;50.840;4.948;2023-06-19T01:48:34;4.40;;;3.37;;
11135;SDS011;5622;50.840;4.948;2023-06-19T01:51:02;5.10;;;3.70;;
11135;SDS011;5622;50.840;4.948;2023-06-19T01:53:30;4.40;;;3.70;;
11135;SDS011;5622;50.840;4.948;2023-06-19T01:55:57;4.97;;;3.50;;
11135;SDS011;5622;50.840;4.948;2023-06-19T01:58:26;4.03;;;3.53;;
11135;SDS011;5622;50.840;4.948;2023-06-19T02:00:54;4.20;;;3.10;;
11135;SDS011;5622;50.840;4.948;2023-06-19T02:03:21;5.10;;;3.40;;
11135;SDS011;5622;50.840;4.948;2023-06-19T02:05:48;5.73;;;3.90;;
11135;SDS011;5622;50.840;4.948;2023-06-19T02:08:15;4.30;;;3.60;;
11135;SDS011;5622;50.840;4.948;2023-06-19T02:10:42;5.27;;;3.47;;
11135;SDS011;5622;50.840;4.948;2023-06-19T02:13:10;12.00;;;4.73;;
11135;SDS011;5622;50.840;4.948;2023-06-19T02:15:38;4.73;;;3.70;;
11135;SDS011;5622;50.840;4.948;2023-06-19T02:18:05;4.57;;;4.17;;
11135;SDS011;5622;50.840;4.948;2023-06-19T02:20:33;4.20;;;3.43;;
11135;SDS011;5622;50.840;4.948;2023-06-19T02:23:00;6.80;;;3.77;;
11135;SDS011;5622;50.840;4.948;2023-06-19T02:25:27;3.73;;;3.43;;
11135;SDS011;5622;50.840;4.948;2023-06-19T02:27:54;4.33;;;3.93;;
11135;SDS011;5622;50.840;4.948;2023-06-19T02:30:22;5.70;;;4.13;;
11135;SDS011;5622;50.840;4.948;2023-06-19T02:32:50;8.40;;;3.90;;
11135;SDS011;5622;50.840;4.948;2023-06-19T02:35:18;5.10;;;4.43;;
11135;SDS011;5622;50.840;4.948;2023-06-19T02:37:45;5.20;;;3.90;;
11135;SDS011;5622;50.840;4.948;2023-06-19T02:40:13;4.90;;;4.07;;
11135;SDS011;5622;50.840;4.948;2023-06-19T02:42:40;4.93;;;3.80;;
11135;SDS011;5622;50.840;4.948;2023-06-19T02:45:08;6.33;;;3.50;;
11135;SDS011;5622;50.840;4.948;2023-06-19T02:47:35;5.17;;;3.87;;
11135;SDS011;5622;50.840;4.948;2023-06-19T02:50:04;6.93;;;4.00;;
11135;SDS011;5622;50.840;4.948;2023-06-19T02:52:32;4.70;;;3.97;;
11135;SDS011;5622;50.840;4.948;2023-06-19T02:54:59;11.17;;;4.17;;
11135;SDS011;5622;50.840;4.948;2023-06-19T02:57:26;5.47;;;4.23;;
11135;SDS011;5622;50.840;4.948;2023-06-19T02:59:53;7.07;;;3.77;;
11135;SDS011;5622;50.840;4.948;2023-06-19T03:02:20;5.60;;;3.97;;
11135;SDS011;5622;50.840;4.948;2023-06-19T03:04:47;6.00;;;4.33;;
11135;SDS011;5622;50.840;4.948;2023-06-19T03:07:16;5.77;;;4.20;;
11135;SDS011;5622;50.840;4.948;2023-06-19T03:09:43;5.83;;;4.30;;
11135;SDS011;5622;50.840;4.948;2023-06-19T03:12:10;5.57;;;4.10;;
11135;SDS011;5622;50.840;4.948;2023-06-19T03:14:38;7.70;;;5.00;;
11135;SDS011;5622;50.840;4.948;2023-06-19T03:17:06;6.30;;;4.43;;
11135;SDS011;5622;50.840;4.948;2023-06-19T03:19:33;5.17;;;4.13;;
11135;SDS011;5622;50.840;4.948;2023-06-19T03:22:00;8.70;;;4.60;;
11135;SDS011;5622;50.840;4.948;2023-06-19T03:24:29;5.17;;;4.20;;
11135;SDS011;5622;50.840;4.948;2023-06-19T03:26:56;7.77;;;4.80;;
11135;SDS011;5622;50.840;4.948;2023-06-19T03:29:24;6.60;;;4.53;;
11135;SDS011;5622;50.840;4.948;2023-06-19T03:31:51;6.77;;;4.73;;
11135;SDS011;5622;50.840;4.948;2023-06-19T03:34:18;8.83;;;5.40;;
11135;SDS011;5622;50.840;4.948;2023-06-19T03:36:45;8.13;;;5.60;;
11135;SDS011;5622;50.840;4.948;2023-06-19T03:39:12;6.13;;;5.07;;
11135;SDS011;5622;50.840;4.948;2023-06-19T03:41:41;9.83;;;5.73;;
11135;SDS011;5622;50.840;4.948;2023-06-19T03:44:08;11.57;;;5.60;;
11135;SDS011;5622;50.840;4.948;2023-06-19T03:46:35;11.73;;;5.90;;
11135;SDS011;5622;50.840;4.948;2023-06-19T03:49:02;6.20;;;5.30;;
11135;SDS011;5622;50.840;4.948;2023-06-19T03:51:31;11.43;;;7.00;;
11135;SDS011;5622;50.840;4.948;2023-06-19T03:53:58;8.43;;;6.50;;
11135;SDS011;5622;50.840;4.948;2023-06-19T03:56:26;10.47;;;6.53;;
11135;SDS011;5622;50.840;4.948;2023-06-19T03:58:54;8.07;;;6.20;;
11135;SDS011;5622;50.840;4.948;2023-06-19T04:01:21;11.67;;;7.47;;
11135;SDS011;5622;50.840;4.948;2023-06-19T04:03:48;9.03;;;6.90;;
11135;SDS011;5622;50.840;4.948;2023-06-19T04:06:15;11.57;;;6.80;;
11135;SDS011;5622;50.840;4.948;2023-06-19T04:08:43;9.90;;;6.50;;
11135;SDS011;5622;50.840;4.948;2023-06-19T04:11:10;8.23;;;6.57;;
11135;SDS011;5622;50.840;4.948;2023-06-19T04:13:37;7.60;;;6.73;;
11135;SDS011;5622;50.840;4.948;2023-06-19T04:16:05;7.90;;;6.00;;
11135;SDS011;5622;50.840;4.948;2023-06-19T04:18:32;11.27;;;6.43;;
11135;SDS011;5622;50.840;4.948;2023-06-19T04:21:00;7.57;;;6.77;;
11135;SDS011;5622;50.840;4.948;2023-06-19T04:23:27;8.50;;;6.60;;
11135;SDS011;5622;50.840;4.948;2023-06-19T04:25:54;8.50;;;6.57;;
11135;SDS011;5622;50.840;4.948;2023-06-19T04:28:21;11.23;;;7.27;;
11135;SDS011;5622;50.840;4.948;2023-06-19T04:30:48;9.87;;;6.87;;
11135;SDS011;5622;50.840;4.948;2023-06-19T04:33:17;8.73;;;6.20;;
11135;SDS011;5622;50.840;4.948;2023-06-19T04:35:46;9.00;;;6.90;;
11135;SDS011;5622;50.840;4.948;2023-06-19T04:38:13;10.90;;;6.90;;
11135;SDS011;5622;50.840;4.948;2023-06-19T04:40:40;9.10;;;7.43;;
11135;SDS011;5622;50.840;4.948;2023-06-19T04:43:08;11.93;;;8.27;;
11135;SDS011;5622;50.840;4.948;2023-06-19T04:45:40;11.50;;;7.83;;
11135;SDS011;5622;50.840;4.948;2023-06-19T04:48:08;9.00;;;7.53;;
11135;SDS011;5622;50.840;4.948;2023-06-19T04:50:36;9.50;;;8.30;;
11135;SDS011;5622;50.840;4.948;2023-06-19T04:53:04;11.53;;;7.37;;
11135;SDS011;5622;50.840;4.948;2023-06-19T04:55:32;12.20;;;8.90;;
11135;SDS011;5622;50.840;4.948;2023-06-19T04:57:59;10.37;;;8.20;;
11135;SDS011;5622;50.840;4.948;2023-06-19T05:00:26;11.30;;;9.03;;
11135;SDS011;5622;50.840;4.948;2023-06-19T05:02:53;10.40;;;8.83;;
11135;SDS011;5622;50.840;4.948;2023-06-19T05:05:24;8.63;;;7.73;;
11135;SDS011;5622;50.840;4.948;2023-06-19T05:07:53;8.43;;;7.40;;
11135;SDS011;5622;50.840;4.948;2023-06-19T05:10:20;11.67;;;8.37;;
11135;SDS011;5622;50.840;4.948;2023-06-19T05:12:47;9.13;;;8.03;;
11135;SDS011;5622;50.840;4.948;2023-06-19T05:15:14;9.23;;;8.23;;
11135;SDS011;5622;50.840;4.948;2023-06-19T05:17:41;9.30;;;8.30;;
11135;SDS011;5622;50.840;4.948;2023-06-19T05:20:13;10.17;;;7.20;;
11135;SDS011;5622;50.840;4.948;2023-06-19T05:22:40;11.40;;;8.50;;
11135;SDS011;5622;50.840;4.948;2023-06-19T05:25:09;9.93;;;7.20;;
11135;SDS011;5622;50.840;4.948;2023-06-19T05:27:36;9.73;;;8.73;;
11135;SDS011;5622;50.840;4.948;2023-06-19T05:30:03;8.70;;;7.57;;
11135;SDS011;5622;50.840;4.948;2023-06-19T05:32:31;14.30;;;8.53;;
11135;SDS011;5622;50.840;4.948;2023-06-19T05:34:58;10.77;;;7.90;;
11135;SDS011;5622;50.840;4.948;2023-06-19T05:37:26;10.17;;;8.23;;
11135;SDS011;5622;50.840;4.948;2023-06-19T05:39:53;11.40;;;8.37;;
11135;SDS011;5622;50.840;4.948;2023-06-19T05:42:22;11.83;;;8.50;;
11135;SDS011;5622;50.840;4.948;2023-06-19T05:44:49;9.97;;;8.40;;
11135;SDS011;5622;50.840;4.948;2023-06-19T05:47:16;11.47;;;8.07;;
11135;SDS011;5622;50.840;4.948;2023-06-19T05:49:45;10.90;;;8.57;;
11135;SDS011;5622;50.840;4.948;2023-06-19T05:52:13;10.50;;;8.90;;
11135;SDS011;5622;50.840;4.948;2023-06-19T05:54:40;11.10;;;9.07;;
11135;SDS011;5622;50.840;4.948;2023-06-19T05:57:08;11.70;;;8.47;;
11135;SDS011;5622;50.840;4.948;2023-06-19T05:59:36;9.27;;;8.07;;
11135;SDS011;5622;50.840;4.948;2023-06-19T06:02:03;10.73;;;7.77;;
11135;SDS011;5622;50.840;4.948;2023-06-19T06:04:31;9.07;;;7.67;;
11135;SDS011;5622;50.840;4.948;2023-06-19T06:06:59;9.17;;;8.10;;
11135;SDS011;5622;50.840;4.948;2023-06-19T06:09:26;12.50;;;8.00;;
11135;SDS011;5622;50.840;4.948;2023-06-19T06:11:53;11.10;;;7.83;;
11135;SDS011;5622;50.840;4.948;2023-06-19T06:14:20;15.93;;;8.33;;
11135;SDS011;5622;50.840;4.948;2023-06-19T06:16:49;12.57;;;8.10;;
11135;SDS011;5622;50.840;4.948;2023-06-19T06:19:16;10.00;;;7.30;;
11135;SDS011;5622;50.840;4.948;2023-06-19T06:21:43;12.20;;;8.63;;
11135;SDS011;5622;50.840;4.948;2023-06-19T06:24:10;10.03;;;7.57;;
11135;SDS011;5622;50.840;4.948;2023-06-19T06:26:37;8.57;;;7.60;;
11135;SDS011;5622;50.840;4.948;2023-06-19T06:29:04;9.47;;;7.67;;
11135;SDS011;5622;50.840;4.948;2023-06-19T06:31:31;10.43;;;8.80;;
11135;SDS011;5622;50.840;4.948;2023-06-19T06:34:00;10.20;;;7.73;;
11135;SDS011;5622;50.840;4.948;2023-06-19T06:36:27;8.13;;;7.27;;
11135;SDS011;5622;50.840;4.948;2023-06-19T06:38:54;10.33;;;7.67;;
11135;SDS011;5622;50.840;4.948;2023-06-19T06:41:21;11.60;;;8.97;;
11135;SDS011;5622;50.840;4.948;2023-06-19T06:43:48;11.03;;;8.93;;
11135;SDS011;5622;50.840;4.948;2023-06-19T06:46:15;8.97;;;7.67;;
11135;SDS011;5622;50.840;4.948;2023-06-19T06:48:42;12.23;;;8.53;;
11135;SDS011;5622;50.840;4.948;2023-06-19T06:51:11;10.30;;;8.93;;
11135;SDS011;5622;50.840;4.948;2023-06-19T06:53:38;12.67;;;8.93;;
11135;SDS011;5622;50.840;4.948;2023-06-19T06:56:05;10.43;;;8.57;;
11135;SDS011;5622;50.840;4.948;2023-06-19T06:58:32;13.07;;;8.77;;
11135;SDS011;5622;50.840;4.948;2023-06-19T07:00:59;12.30;;;8.23;;
11135;SDS011;5622;50.840;4.948;2023-06-19T07:03:26;10.33;;;8.97;;
11135;SDS011;5622;50.840;4.948;2023-06-19T07:05:56;11.20;;;9.20;;
11135;SDS011;5622;50.840;4.948;2023-06-19T07:08:25;12.37;;;8.63;;
11135;SDS011;5622;50.840;4.948;2023-06-19T07:10:52;11.67;;;10.33;;
11135;SDS011;5622;50.840;4.948;2023-06-19T07:13:19;10.73;;;9.63;;
11135;SDS011;5622;50.840;4.948;2023-06-19T07:15:46;12.97;;;11.53;;
11135;SDS011;5622;50.840;4.948;2023-06-19T07:18:13;14.03;;;12.43;;
11135;SDS011;5622;50.840;4.948;2023-06-19T07:20:40;15.37;;;12.13;;
11135;SDS011;5622;50.840;4.948;2023-06-19T07:23:08;13.30;;;11.33;;
11135;SDS011;5622;50.840;4.948;2023-06-19T07:25:38;14.90;;;12.20;;
11135;SDS011;5622;50.840;4.948;2023-06-19T07:28:05;16.63;;;11.87;;
11135;SDS011;5622;50.840;4.948;2023-06-19T07:30:32;13.83;;;12.30;;
11135;SDS011;5622;50.840;4.948;2023-06-19T07:32:59;13.83;;;12.43;;
11135;SDS011;5622;50.840;4.948;2023-06-19T07:35:26;13.93;;;12.43;;
11135;SDS011;5622;50.840;4.948;2023-06-19T07:37:53;13.63;;;11.00;;
11135;SDS011;5622;50.840;4.948;2023-06-19T07:40:20;13.10;;;11.00;;
11135;SDS011;5622;50.840;4.948;2023-06-19T07:42:49;11.40;;;10.30;;
11135;SDS011;5622;50.840;4.948;2023-06-19T07:45:16;12.90;;;11.47;;
11135;SDS011;5622;50.840;4.948;2023-06-19T07:47:43;11.33;;;9.90;;
11135;SDS011;5622;50.840;4.948;2023-06-19T07:50:19;12.00;;;10.80;;
11135;SDS011;5622;50.840;4.948;2023-06-19T07:52:46;12.00;;;9.93;;
11135;SDS011;5622;50.840;4.948;2023-06-19T07:55:14;12.30;;;9.70;;
11135;SDS011;5622;50.840;4.948;2023-06-19T07:57:41;10.53;;;9.37;;
11135;SDS011;5622;50.840;4.948;2023-06-19T08:00:10;10.83;;;9.70;;
11135;SDS011;5622;50.840;4.948;2023-06-19T08:02:38;11.10;;;9.13;;
11135;SDS011;5622;50.840;4.948;2023-06-19T08:05:06;14.53;;;12.43;;
11135;SDS011;5622;50.840;4.948;2023-06-19T08:07:34;15.17;;;11.83;;
11135;SDS011;5622;50.840;4.948;2023-06-19T08:10:02;16.90;;;12.77;;
11135;SDS011;5622;50.840;4.948;2023-06-19T08:12:30;13.57;;;12.17;;
11135;SDS011;5622;50.840;4.948;2023-06-19T08:14:57;13.57;;;11.53;;
11135;SDS011;5622;50.840;4.948;2023-06-19T08:17:25;16.20;;;12.87;;
11135;SDS011;5622;50.840;4.948;2023-06-19T08:19:52;15.23;;;11.97;;
11135;SDS011;5622;50.840;4.948;2023-06-19T08:22:19;16.33;;;14.27;;
11135;SDS011;5622;50.840;4.948;2023-06-19T08:24:47;17.77;;;12.20;;
11135;SDS011;5622;50.840;4.948;2023-06-19T08:27:14;13.93;;;10.87;;
11135;SDS011;5622;50.840;4.948;2023-06-19T08:29:41;13.37;;;10.43;;
11135;SDS011;5622;50.840;4.948;2023-06-19T08:32:08;12.40;;;10.90;;
11135;SDS011;5622;50.840;4.948;2023-06-19T08:34:37;16.13;;;11.13;;
11135;SDS011;5622;50.840;4.948;2023-06-19T08:37:04;12.30;;;10.90;;
11135;SDS011;5622;50.840;4.948;2023-06-19T08:39:32;14.73;;;11.30;;
11135;SDS011;5622;50.840;4.948;2023-06-19T08:41:59;11.80;;;9.30;;
11135;SDS011;5622;50.840;4.948;2023-06-19T08:44:26;15.53;;;10.40;;
11135;SDS011;5622;50.840;4.948;2023-06-19T08:46:53;11.10;;;9.17;;
11135;SDS011;5622;50.840;4.948;2023-06-19T08:49:21;10.80;;;8.80;;
11135;SDS011;5622;50.840;4.948;2023-06-19T08:51:49;10.43;;;9.13;;
11135;SDS011;5622;50.840;4.948;2023-06-19T08:54:17;9.33;;;8.40;;
11135;SDS011;5622;50.840;4.948;2023-06-19T08:56:44;11.63;;;9.57;;
11135;SDS011;5622;50.840;4.948;2023-06-19T08:59:13;11.47;;;8.80;;
11135;SDS011;5622;50.840;4.948;2023-06-19T09:01:46;9.33;;;8.43;;
11135;SDS011;5622;50.840;4.948;2023-06-19T09:04:17;11.73;;;8.27;;
11135;SDS011;5622;50.840;4.948;2023-06-19T09:06:48;9.53;;;8.53;;
11135;SDS011;5622;50.840;4.948;2023-06-19T09:09:18;11.77;;;8.30;;
11135;SDS011;5622;50.840;4.948;2023-06-19T09:11:56;10.57;;;8.30;;
11135;SDS011;5622;50.840;4.948;2023-06-19T09:14:24;8.40;;;7.10;;
11135;SDS011;5622;50.840;4.948;2023-06-19T09:16:57;8.70;;;7.37;;
11135;SDS011;5622;50.840;4.948;2023-06-19T09:19:24;10.00;;;6.65;;
11135;SDS011;5622;50.840;4.948;2023-06-19T09:21:53;9.43;;;6.17;;
11135;SDS011;5622;50.840;4.948;2023-06-19T09:24:32;8.10;;;5.87;;
11135;SDS011;5622;50.840;4.948;2023-06-19T09:27:10;7.80;;;6.22;;
11135;SDS011;5622;50.840;4.948;2023-06-19T09:29:39;8.73;;;5.97;;
11135;SDS011;5622;50.840;4.948;2023-06-19T09:32:16;9.30;;;6.95;;
11135;SDS011;5622;50.840;4.948;2023-06-19T09:34:44;7.85;;;5.85;;
11135;SDS011;5622;50.840;4.948;2023-06-19T09:37:13;7.15;;;5.57;;
11135;SDS011;5622;50.840;4.948;2023-06-19T09:39:41;9.80;;;5.88;;
11135;SDS011;5622;50.840;4.948;2023-06-19T09:42:08;6.70;;;5.63;;
11135;SDS011;5622;50.840;4.948;2023-06-19T09:44:39;6.68;;;5.32;;
11135;SDS011;5622;50.840;4.948;2023-06-19T09:47:10;6.68;;;5.63;;
11135;SDS011;5622;50.840;4.948;2023-06-19T09:49:42;6.18;;;5.57;;
11135;SDS011;5622;50.840;4.948;2023-06-19T09:52:16;8.05;;;5.78;;
11135;SDS011;5622;50.840;4.948;2023-06-19T09:54:47;8.85;;;6.15;;
11135;SDS011;5622;50.840;4.948;2023-06-19T09:57:15;9.55;;;5.68;;
11135;SDS011;5622;50.840;4.948;2023-06-19T09:59:43;5.72;;;4.95;;
11135;SDS011;5622;50.840;4.948;2023-06-19T10:02:12;9.05;;;5.70;;
11135;SDS011;5622;50.840;4.948;2023-06-19T10:04:44;6.43;;;5.63;;
11135;SDS011;5622;50.840;4.948;2023-06-19T10:07:17;7.97;;;5.80;;
11135;SDS011;5622;50.840;4.948;2023-06-19T10:09:56;7.50;;;6.07;;
11135;SDS011;5622;50.840;4.948;2023-06-19T10:12:33;7.55;;;5.78;;
11135;SDS011;5622;50.840;4.948;2023-06-19T10:15:08;8.43;;;5.80;;
11135;SDS011;5622;50.840;4.948;2023-06-19T10:17:36;6.43;;;5.82;;
11135;SDS011;5622;50.840;4.948;2023-06-19T10:20:04;7.93;;;5.35;;
11135;SDS011;5622;50.840;4.948;2023-06-19T10:22:49;8.70;;;5.45;;
11135;SDS011;5622;50.840;4.948;2023-06-19T15:34:09;4.45;;;4.05;;
